Main page
METAR-TAF:

METAR-TAF

Airports :

Saint-Brieuc – Armor Airport

Saint-Brieuc, France

latitude: 48-32N, longitude: 002-51W, elevation: 138 m

Current weather observation

The report was made 3 hours and 44 minutes ago, at 21:00 UTC
Wind 3 kt from variable directions
Temperature 18°C
Humidity 100%
Pressure 1014 hPa
Visibility: 3200 m
mist

METAR: LFRT 132100Z AUTO VRB03KT 3200 BR VV/// 18/18 Q1014

Time: 02:44 (00:44 UTC)


TAF: missing

Weather observations and forecasts of more than 4000 airports (METAR and TAF reports).

The available stations are represented by yellow and red dots on the map.

Hover mouse over dot to see the name of the station.

Then click to see weather observations and forecasts.

To change the map : click on the green buttons with a black cross to zoom in, on the green button with a dash to zoom out, or on the green arrows for adjacent maps.


METAR-TAF: